Darstellungsparameter: Aktuell verwendete Einstellungen:
Skalierung der Graphiken ... ?
xyx+y,   Skalierungsfaktor:      Skalierung: Modus: x, Faktor: 1
Darstellungszeitraum ... ?
Vom - - bis: - -   Zeitraum: 22.02.2020 - 22.02.2020
Min/Max/Avg-Anzeige ... ?
Zeige MMA aktuell
Zeige MMA Monat
Zeige MMA alles
Zeige --A aktuell
Zeige --A Monat
Zeige --A alles
Keine MMA-Anzeige
MMA:
Keine MMA-Graphiken
MMA-Basis: 22.02.2020 - 22.02.2020
Quicknavigation für Darstellung... ?
Tage:      1T, 2T, 3T, 5T -1T -2T -3T -5T +1T +2T +3T +5T
Wochen: 1W, 2W, 3W -1W -2W -3W +1W +2W +3W
Monate: 1M, 3M, 6M -1M -3M -6M +1M +3M +6M
Jahre:    1J, 3J, 5J, 10J -1J -3J -5J -10J +1J +3J +5J +10J
Nutze für die Darstellung ... ?
Originaldaten oder Mittelwerte auf ...
Stundenbasis Tagesbasis Wochenbasis
Monatsbasis Jahresbasis      Datenbasis: Original-Daten
Darstellen als:
Statistik (Auto) Statistik J:M      Darstellung:
Zur Graphik,    zurück zur Übersicht aller Sensoren.
 
Tabellarische Datenbersicht: ?
 
Sensor: Nr:Datum:Temp:Feuchte:Taupunkt:
Aussen-T/F 1 22-02-2020 00:00:00 4.8 C 86 % 2.66 C
2 22-02-2020 00:05:00 4.8 C 86 % 2.66 C
3 22-02-2020 00:10:00 4.7 C 86 % 2.56 C
4 22-02-2020 00:15:00 4.6 C 86 % 2.47 C
5 22-02-2020 00:20:00 4.5 C 87 % 2.53 C
6 22-02-2020 00:25:00 4.4 C 87 % 2.43 C
7 22-02-2020 00:30:00 4.4 C 87 % 2.43 C
8 22-02-2020 00:35:00 4.4 C 87 % 2.43 C
9 22-02-2020 00:40:00 4.4 C 87 % 2.43 C
10 22-02-2020 00:45:00 4.4 C 87 % 2.43 C
11 22-02-2020 00:50:00 4.5 C 87 % 2.53 C
12 22-02-2020 00:55:00 4.6 C 87 % 2.63 C
13 22-02-2020 01:00:00 4.6 C 87 % 2.63 C
14 22-02-2020 01:05:00 4.5 C 87 % 2.53 C
15 22-02-2020 01:10:00 4.6 C 87 % 2.63 C
16 22-02-2020 01:15:00 4.7 C 86 % 2.56 C
17 22-02-2020 01:20:00 4.7 C 86 % 2.56 C
18 22-02-2020 01:25:00 4.7 C 86 % 2.56 C
19 22-02-2020 01:30:00 4.7 C 85 % 2.4 C
20 22-02-2020 01:35:00 4.7 C 86 % 2.56 C
21 22-02-2020 01:40:00 4.6 C 86 % 2.47 C
22 22-02-2020 01:45:00 4.4 C 85 % 2.11 C
23 22-02-2020 01:50:00 4.3 C 86 % 2.17 C
24 22-02-2020 01:55:00 4.2 C 87 % 2.23 C
25 22-02-2020 02:00:00 4.3 C 87 % 2.33 C
Sensor: Nr:Datum:Temp:Feuchte:Taupunkt:
Aussen-T/F 26 22-02-2020 02:05:00 4.4 C 87 % 2.43 C
27 22-02-2020 02:10:00 4.6 C 87 % 2.63 C
28 22-02-2020 02:15:00 4.8 C 86 % 2.66 C
29 22-02-2020 02:20:00 5.1 C 85 % 2.79 C
30 22-02-2020 02:25:00 5.1 C 85 % 2.79 C
31 22-02-2020 02:30:00 5.1 C 84 % 2.63 C
32 22-02-2020 02:35:00 5.2 C 84 % 2.72 C
33 22-02-2020 02:40:00 5.3 C 84 % 2.82 C
34 22-02-2020 02:45:00 5.4 C 84 % 2.92 C
35 22-02-2020 02:50:00 5.5 C 83 % 2.85 C
36 22-02-2020 02:55:00 5.5 C 83 % 2.85 C
37 22-02-2020 03:00:00 5.5 C 83 % 2.85 C
38 22-02-2020 03:05:00 5.4 C 83 % 2.75 C
39 22-02-2020 03:10:00 5.4 C 83 % 2.75 C
40 22-02-2020 03:15:00 5.3 C 83 % 2.65 C
41 22-02-2020 03:20:00 5.4 C 83 % 2.75 C
42 22-02-2020 03:25:00 5.4 C 83 % 2.75 C
43 22-02-2020 03:30:00 5.4 C 83 % 2.75 C
44 22-02-2020 03:35:00 5.4 C 83 % 2.75 C
45 22-02-2020 03:40:00 5.5 C 83 % 2.85 C
46 22-02-2020 03:45:00 5.5 C 82 % 2.68 C
47 22-02-2020 03:50:00 5.4 C 83 % 2.75 C
48 22-02-2020 03:55:00 5.4 C 83 % 2.75 C
49 22-02-2020 04:00:00 5.3 C 83 % 2.65 C
50 22-02-2020 04:05:00 5.3 C 83 % 2.65 C
Sensor: Nr:Datum:Temp:Feuchte:Taupunkt:
Aussen-T/F 51 22-02-2020 04:10:00 5.3 C 83 % 2.65 C
52 22-02-2020 04:15:00 5.3 C 83 % 2.65 C
53 22-02-2020 04:20:00 5.3 C 83 % 2.65 C
54 22-02-2020 04:25:00 5.3 C 83 % 2.65 C
55 22-02-2020 04:30:00 5.3 C 83 % 2.65 C
56 22-02-2020 04:35:00 5.3 C 83 % 2.65 C
57 22-02-2020 04:40:00 5.2 C 83 % 2.56 C
58 22-02-2020 04:45:00 5.2 C 84 % 2.72 C
59 22-02-2020 04:50:00 5.3 C 84 % 2.82 C
60 22-02-2020 04:55:00 5.3 C 83 % 2.65 C
61 22-02-2020 05:00:00 5.4 C 83 % 2.75 C
62 22-02-2020 05:05:00 5.6 C 83 % 2.95 C
63 22-02-2020 05:10:00 5.6 C 83 % 2.95 C
64 22-02-2020 05:15:00 5.6 C 83 % 2.95 C
65 22-02-2020 05:20:00 5.7 C 83 % 3.04 C
66 22-02-2020 05:25:00 5.8 C 82 % 2.97 C
67 22-02-2020 05:30:00 5.7 C 82 % 2.87 C
68 22-02-2020 05:35:00 5.8 C 82 % 2.97 C
69 22-02-2020 05:40:00 5.8 C 82 % 2.97 C
70 22-02-2020 05:45:00 5.8 C 82 % 2.97 C
71 22-02-2020 05:50:00 5.9 C 82 % 3.07 C
72 22-02-2020 05:55:00 5.8 C 82 % 2.97 C
73 22-02-2020 06:00:00 5.8 C 82 % 2.97 C
74 22-02-2020 06:05:00 5.8 C 82 % 2.97 C
75 22-02-2020 06:10:00 5.8 C 81 % 2.8 C
Sensor: Nr:Datum:Temp:Feuchte:Taupunkt:
Aussen-T/F 76 22-02-2020 06:15:00 5.8 C 82 % 2.97 C
77 22-02-2020 06:20:00 5.8 C 82 % 2.97 C
78 22-02-2020 06:25:00 5.8 C 82 % 2.97 C
79 22-02-2020 06:30:00 5.8 C 82 % 2.97 C
80 22-02-2020 06:35:00 5.8 C 82 % 2.97 C
81 22-02-2020 06:40:00 5.9 C 82 % 3.07 C
82 22-02-2020 06:45:00 5.9 C 82 % 3.07 C
83 22-02-2020 06:50:00 5.9 C 82 % 3.07 C
84 22-02-2020 06:55:00 5.8 C 82 % 2.97 C
85 22-02-2020 07:00:00 5.8 C 82 % 2.97 C
86 22-02-2020 07:05:00 5.8 C 82 % 2.97 C
87 22-02-2020 07:10:00 5.9 C 82 % 3.07 C
88 22-02-2020 07:15:00 5.8 C 81 % 2.8 C
89 22-02-2020 07:20:00 5.8 C 82 % 2.97 C
90 22-02-2020 07:25:00 5.7 C 82 % 2.87 C
91 22-02-2020 07:30:00 5.7 C 82 % 2.87 C
92 22-02-2020 07:35:00 5.7 C 82 % 2.87 C
93 22-02-2020 07:40:00 5.7 C 82 % 2.87 C
94 22-02-2020 07:45:00 5.8 C 82 % 2.97 C
95 22-02-2020 07:50:00 5.9 C 82 % 3.07 C
96 22-02-2020 07:55:00 5.8 C 82 % 2.97 C
97 22-02-2020 08:00:00 5.8 C 82 % 2.97 C
98 22-02-2020 08:05:00 5.9 C 82 % 3.07 C
99 22-02-2020 08:10:00 5.9 C 82 % 3.07 C
100 22-02-2020 08:15:00 5.9 C 81 % 2.9 C
Sensor: Nr:Datum:Temp:Feuchte:Taupunkt:
Aussen-T/F 101 22-02-2020 08:20:00 6.1 C 81 % 3.09 C
102 22-02-2020 08:25:00 6.1 C 81 % 3.09 C
103 22-02-2020 08:30:00 6.1 C 81 % 3.09 C
104 22-02-2020 08:35:00 6.1 C 81 % 3.09 C
105 22-02-2020 08:40:00 6.1 C 81 % 3.09 C
106 22-02-2020 08:45:00 6.1 C 81 % 3.09 C
107 22-02-2020 08:50:00 6.2 C 81 % 3.19 C
108 22-02-2020 08:55:00 6.2 C 81 % 3.19 C
109 22-02-2020 09:00:00 6.3 C 81 % 3.29 C
110 22-02-2020 09:05:00 6.4 C 80 % 3.21 C
111 22-02-2020 09:10:00 6.5 C 80 % 3.31 C
112 22-02-2020 09:15:00 6.6 C 80 % 3.4 C
113 22-02-2020 09:20:00 6.7 C 80 % 3.5 C
114 22-02-2020 09:25:00 6.7 C 79 % 3.32 C
115 22-02-2020 09:30:00 6.8 C 79 % 3.42 C
116 22-02-2020 09:35:00 6.8 C 78 % 3.24 C
117 22-02-2020 09:40:00 6.8 C 78 % 3.24 C
118 22-02-2020 09:45:00 6.9 C 78 % 3.34 C
119 22-02-2020 09:50:00 6.9 C 78 % 3.34 C
120 22-02-2020 09:55:00 6.9 C 77 % 3.16 C
121 22-02-2020 10:00:00 7.1 C 77 % 3.35 C
122 22-02-2020 10:05:00 7.2 C 77 % 3.45 C
123 22-02-2020 10:10:00 7.3 C 76 % 3.36 C
124 22-02-2020 10:15:00 7.3 C 76 % 3.36 C
125 22-02-2020 10:20:00 7.4 C 75 % 3.27 C
Sensor: Nr:Datum:Temp:Feuchte:Taupunkt:
Aussen-T/F 126 22-02-2020 10:25:00 7.4 C 75 % 3.27 C
127 22-02-2020 10:30:00 7.5 C 75 % 3.36 C
128 22-02-2020 10:35:00 7.6 C 75 % 3.46 C
129 22-02-2020 10:40:00 7.6 C 75 % 3.46 C
130 22-02-2020 10:45:00 7.6 C 75 % 3.46 C
131 22-02-2020 10:50:00 7.6 C 75 % 3.46 C
132 22-02-2020 10:55:00 7.6 C 75 % 3.46 C
133 22-02-2020 11:00:00 7.7 C 75 % 3.56 C
134 22-02-2020 11:05:00 7.7 C 75 % 3.56 C
135 22-02-2020 11:10:00 7.7 C 76 % 3.75 C
136 22-02-2020 11:15:00 7.8 C 75 % 3.65 C
137 22-02-2020 11:20:00 7.8 C 75 % 3.65 C
138 22-02-2020 11:25:00 7.8 C 74 % 3.46 C
139 22-02-2020 11:30:00 7.9 C 74 % 3.56 C
140 22-02-2020 11:35:00 7.9 C 73 % 3.37 C
141 22-02-2020 11:40:00 8 C 73 % 3.46 C
142 22-02-2020 11:45:00 8.1 C 73 % 3.56 C
143 22-02-2020 11:50:00 8.2 C 72 % 3.46 C
144 22-02-2020 11:55:00 8.2 C 71 % 3.26 C
145 22-02-2020 12:00:00 8.3 C 70 % 3.16 C
146 22-02-2020 12:05:00 8.4 C 70 % 3.26 C
147 22-02-2020 12:10:00 8.6 C 71 % 3.65 C
148 22-02-2020 12:15:00 8.7 C 70 % 3.54 C
149 22-02-2020 12:20:00 8.7 C 70 % 3.54 C
150 22-02-2020 12:25:00 8.8 C 69 % 3.44 C
Sensor: Nr:Datum:Temp:Feuchte:Taupunkt:
Aussen-T/F 151 22-02-2020 12:30:00 8.8 C 70 % 3.64 C
152 22-02-2020 12:35:00 8.9 C 68 % 3.32 C
153 22-02-2020 12:40:00 9 C 69 % 3.63 C
154 22-02-2020 12:45:00 9.1 C 68 % 3.52 C
155 22-02-2020 12:50:00 9.2 C 69 % 3.82 C
156 22-02-2020 12:55:00 9.2 C 69 % 3.82 C
157 22-02-2020 13:00:00 9.3 C 67 % 3.5 C
158 22-02-2020 13:05:00 9.4 C 68 % 3.8 C
159 22-02-2020 13:10:00 9.5 C 69 % 4.11 C
160 22-02-2020 13:15:00 9.6 C 69 % 4.2 C
161 22-02-2020 13:20:00 9.7 C 67 % 3.88 C
162 22-02-2020 13:25:00 9.8 C 67 % 3.97 C
163 22-02-2020 13:30:00 10 C 66 % 3.95 C
164 22-02-2020 13:35:00 10.2 C 65 % 3.92 C
165 22-02-2020 13:40:00 10.3 C 66 % 4.24 C
166 22-02-2020 13:45:00 10.3 C 66 % 4.24 C
167 22-02-2020 13:50:00 10.3 C 65 % 4.02 C
168 22-02-2020 13:55:00 10.3 C 65 % 4.02 C
169 22-02-2020 14:00:00 10.3 C 65 % 4.02 C
170 22-02-2020 14:05:00 10.3 C 65 % 4.02 C
171 22-02-2020 14:10:00 10.3 C 65 % 4.02 C
172 22-02-2020 14:15:00 10.3 C 65 % 4.02 C
173 22-02-2020 14:20:00 10.3 C 65 % 4.02 C
174 22-02-2020 14:25:00 10.3 C 66 % 4.24 C
175 22-02-2020 14:30:00 10.2 C 66 % 4.14 C
Sensor: Nr:Datum:Temp:Feuchte:Taupunkt:
Aussen-T/F 176 22-02-2020 14:35:00 10.3 C 66 % 4.24 C
177 22-02-2020 14:40:00 10.3 C 66 % 4.24 C
178 22-02-2020 14:45:00 10.3 C 66 % 4.24 C
179 22-02-2020 14:50:00 10.3 C 67 % 4.45 C
180 22-02-2020 14:55:00 10.3 C 67 % 4.45 C
181 22-02-2020 15:00:00 10.4 C 67 % 4.55 C
182 22-02-2020 15:05:00 10.4 C 67 % 4.55 C
183 22-02-2020 15:10:00 10.4 C 67 % 4.55 C
184 22-02-2020 15:15:00 10.4 C 67 % 4.55 C
185 22-02-2020 15:20:00 10.5 C 67 % 4.64 C
186 22-02-2020 15:25:00 10.6 C 67 % 4.74 C
187 22-02-2020 15:30:00 10.6 C 68 % 4.95 C
188 22-02-2020 15:35:00 10.7 C 68 % 5.04 C
189 22-02-2020 15:40:00 10.7 C 68 % 5.04 C
190 22-02-2020 15:45:00 10.8 C 68 % 5.14 C
191 22-02-2020 15:50:00 10.8 C 68 % 5.14 C
192 22-02-2020 15:55:00 10.8 C 68 % 5.14 C
193 22-02-2020 16:00:00 10.9 C 68 % 5.23 C
194 22-02-2020 16:05:00 10.9 C 68 % 5.23 C
195 22-02-2020 16:10:00 10.8 C 69 % 5.35 C
196 22-02-2020 16:15:00 10.8 C 69 % 5.35 C
197 22-02-2020 16:20:00 10.8 C 69 % 5.35 C
198 22-02-2020 16:25:00 10.7 C 69 % 5.25 C
199 22-02-2020 16:30:00 10.7 C 70 % 5.46 C
200 22-02-2020 16:35:00 10.7 C 70 % 5.46 C
Sensor: Nr:Datum:Temp:Feuchte:Taupunkt:
Aussen-T/F 201 22-02-2020 16:40:00 10.6 C 71 % 5.57 C
202 22-02-2020 16:45:00 10.6 C 71 % 5.57 C
203 22-02-2020 16:50:00 10.6 C 71 % 5.57 C
204 22-02-2020 16:55:00 10.5 C 71 % 5.47 C
205 22-02-2020 17:00:00 10.4 C 72 % 5.58 C
206 22-02-2020 17:05:00 10.4 C 71 % 5.38 C
207 22-02-2020 17:10:00 10.4 C 72 % 5.58 C
208 22-02-2020 17:15:00 10.3 C 72 % 5.48 C
209 22-02-2020 17:20:00 10.3 C 72 % 5.48 C
210 22-02-2020 17:25:00 10.3 C 72 % 5.48 C
211 22-02-2020 17:30:00 10.3 C 72 % 5.48 C
212 22-02-2020 17:35:00 10.3 C 73 % 5.68 C
213 22-02-2020 17:40:00 10.3 C 73 % 5.68 C
214 22-02-2020 17:45:00 10.3 C 73 % 5.68 C
215 22-02-2020 17:50:00 10.3 C 73 % 5.68 C
216 22-02-2020 17:55:00 10.2 C 73 % 5.58 C
217 22-02-2020 18:00:00 10.2 C 74 % 5.78 C
218 22-02-2020 18:05:00 10.2 C 74 % 5.78 C
219 22-02-2020 18:10:00 10.2 C 74 % 5.78 C
220 22-02-2020 18:15:00 10.2 C 74 % 5.78 C
221 22-02-2020 18:20:00 10.1 C 75 % 5.88 C
222 22-02-2020 18:25:00 10.1 C 75 % 5.88 C
223 22-02-2020 18:30:00 10.1 C 76 % 6.07 C
224 22-02-2020 18:35:00 10.1 C 76 % 6.07 C
225 22-02-2020 18:40:00 10.1 C 77 % 6.26 C
Sensor: Nr:Datum:Temp:Feuchte:Taupunkt:
Aussen-T/F 226 22-02-2020 18:45:00 10.1 C 77 % 6.26 C
227 22-02-2020 18:50:00 10 C 78 % 6.35 C
228 22-02-2020 18:55:00 10 C 79 % 6.53 C
229 22-02-2020 19:00:00 9.9 C 79 % 6.43 C
230 22-02-2020 19:05:00 9.9 C 79 % 6.43 C
231 22-02-2020 19:10:00 9.9 C 80 % 6.62 C
232 22-02-2020 19:15:00 9.9 C 80 % 6.62 C
233 22-02-2020 19:20:00 9.9 C 80 % 6.62 C
234 22-02-2020 19:25:00 9.9 C 80 % 6.62 C
235 22-02-2020 19:30:00 9.9 C 80 % 6.62 C
236 22-02-2020 19:35:00 9.9 C 80 % 6.62 C
237 22-02-2020 19:40:00 9.9 C 80 % 6.62 C
238 22-02-2020 19:45:00 10 C 81 % 6.89 C
239 22-02-2020 19:50:00 10.1 C 80 % 6.81 C
240 22-02-2020 19:55:00 10.1 C 81 % 6.99 C
241 22-02-2020 20:00:00 10.2 C 81 % 7.09 C
242 22-02-2020 20:05:00 10.2 C 81 % 7.09 C
243 22-02-2020 20:10:00 10.2 C 81 % 7.09 C
244 22-02-2020 20:15:00 10.2 C 81 % 7.09 C
245 22-02-2020 20:20:00 10.2 C 81 % 7.09 C
246 22-02-2020 20:25:00 10.2 C 81 % 7.09 C
247 22-02-2020 20:30:00 10.2 C 81 % 7.09 C
248 22-02-2020 20:35:00 10.3 C 82 % 7.37 C
249 22-02-2020 20:40:00 10.3 C 82 % 7.37 C
250 22-02-2020 20:45:00 10.3 C 82 % 7.37 C
Sensor: Nr:Datum:Temp:Feuchte:Taupunkt:
Aussen-T/F 251 22-02-2020 20:50:00 10.3 C 82 % 7.37 C
252 22-02-2020 20:55:00 10.2 C 82 % 7.27 C
253 22-02-2020 21:00:00 10.2 C 82 % 7.27 C
254 22-02-2020 21:05:00 10.2 C 83 % 7.45 C
255 22-02-2020 21:10:00 10.2 C 83 % 7.45 C
256 22-02-2020 21:15:00 10.3 C 83 % 7.54 C
257 22-02-2020 21:20:00 10.3 C 83 % 7.54 C
258 22-02-2020 21:25:00 10.4 C 82 % 7.46 C
259 22-02-2020 21:30:00 10.4 C 82 % 7.46 C
260 22-02-2020 21:35:00 10.4 C 82 % 7.46 C
261 22-02-2020 21:40:00 10.5 C 82 % 7.56 C
262 22-02-2020 21:45:00 10.6 C 82 % 7.66 C
263 22-02-2020 21:50:00 10.6 C 82 % 7.66 C
264 22-02-2020 21:55:00 10.6 C 82 % 7.66 C
265 22-02-2020 22:00:00 10.6 C 82 % 7.66 C
266 22-02-2020 22:05:00 10.6 C 82 % 7.66 C
267 22-02-2020 22:10:00 10.7 C 82 % 7.76 C
268 22-02-2020 22:15:00 10.7 C 82 % 7.76 C
269 22-02-2020 22:20:00 10.8 C 82 % 7.85 C
270 22-02-2020 22:25:00 10.8 C 82 % 7.85 C
271 22-02-2020 22:30:00 10.9 C 81 % 7.77 C
272 22-02-2020 22:35:00 10.9 C 82 % 7.95 C
273 22-02-2020 22:40:00 10.9 C 82 % 7.95 C
274 22-02-2020 22:45:00 10.9 C 82 % 7.95 C
275 22-02-2020 22:50:00 10.9 C 82 % 7.95 C
Sensor: Nr:Datum:Temp:Feuchte:Taupunkt:
Aussen-T/F 276 22-02-2020 22:55:00 10.9 C 82 % 7.95 C
277 22-02-2020 23:00:00 10.8 C 82 % 7.85 C
278 22-02-2020 23:05:00 10.8 C 82 % 7.85 C
279 22-02-2020 23:10:00 10.9 C 82 % 7.95 C
280 22-02-2020 23:15:00 10.9 C 82 % 7.95 C
281 22-02-2020 23:20:00 10.9 C 82 % 7.95 C
282 22-02-2020 23:25:00 10.9 C 82 % 7.95 C
283 22-02-2020 23:30:00 10.9 C 82 % 7.95 C
284 22-02-2020 23:35:00 10.9 C 82 % 7.95 C
285 22-02-2020 23:40:00 10.9 C 82 % 7.95 C
286 22-02-2020 23:45:00 10.9 C 82 % 7.95 C
287 22-02-2020 23:50:00 11 C 82 % 8.05 C
288 22-02-2020 23:55:00 11 C 82 % 8.05 C

Legende:
   Min
   Max


Maximal/Minimal-Werte vom 22.02.2020 - 22.02.2020

Sensor Min Max Avg
Temp
(Aussen-T/F)
4.2 °C
22-02-2020  01:55:00
11 °C
22-02-2020  23:50:00
8.05 °C
Feuchte
(Aussen-T/F)
65 %
22-02-2020  13:35:00
87 %
22-02-2020  00:20:00
78.1 %
Taupunkt
(Aussen-T/F)
2.11 C
22-02-2020  01:45:00
8.05 C
22-02-2020  23:50:00
4.4 C

Die Daten stammen von einer Davis Vantage Pro 2 Wetter-Station und werden unter Linux mit der Software wview2wettercgi und aufbereitet. Alle Angaben erfolgen ohne Gewähr für ihre Vollständigkeit oder Richtigkeit.
Kontakt: Rainer Krienke krienke@uni-koblenz.de . Meine Webseiten an der Uni Koblenz oder privat.
Version: $Revision: 0.78 $